TimeEST,TemperatureF,Dew PointF,Humidity,Sea Level PressureIn,VisibilityMPH,Wind Direction,Wind SpeedMPH,Gust SpeedMPH,PrecipitationIn,Events,Conditions,WindDirDegrees,DateUTC
12:53 AM,21.9,17.1,82,30.16,8.0,SW,6.9,-,0.00,,Overcast,220,2013-01-03 05:53:00
1:51 AM,21.2,17.6,86,30.10,8.0,SW,5.8,-,N/A,,Overcast,220,2013-01-03 06:51:00
1:53 AM,21.0,17.1,85,30.15,8.0,SW,6.9,-,N/A,,Overcast,220,2013-01-03 06:53:00
2:39 AM,19.4,15.8,86,30.11,10.0,SSW,5.8,-,N/A,,Scattered Clouds,200,2013-01-03 07:39:00
2:53 AM,19.0,14.0,81,30.16,10.0,SSW,5.8,-,N/A,,Partly Cloudy,210,2013-01-03 07:53:00
3:53 AM,18.0,14.0,84,30.13,9.0,SSW,4.6,-,N/A,,Partly Cloudy,200,2013-01-03 08:53:00
4:53 AM,17.1,8.1,68,30.11,10.0,SSW,6.9,-,N/A,,Overcast,210,2013-01-03 09:53:00
5:53 AM,16.0,5.0,62,30.10,10.0,SSW,8.1,-,N/A,,Overcast,210,2013-01-03 10:53:00
6:53 AM,16.0,6.1,65,30.09,10.0,SSW,4.6,-,N/A,,Overcast,210,2013-01-03 11:53:00
7:10 AM,15.8,6.8,68,30.03,10.0,SW,4.6,-,0.00,Snow,Light Snow,230,2013-01-03 12:10:00
7:53 AM,16.0,6.1,65,30.08,9.0,SSW,6.9,-,0.00,,Overcast,210,2013-01-03 12:53:00
8:14 AM,15.8,6.8,68,30.03,10.0,SSW,5.8,-,N/A,,Overcast,210,2013-01-03 13:14:00
8:53 AM,17.1,7.0,65,30.09,10.0,SW,6.9,-,N/A,,Overcast,220,2013-01-03 13:53:00
9:53 AM,18.0,10.0,71,30.09,9.0,SW,6.9,-,0.00,Snow,Light Snow,230,2013-01-03 14:53:00
10:15 AM,19.4,10.4,68,30.05,8.0,SW,8.1,-,0.00,Snow,Light Snow,230,2013-01-03 15:15:00
10:53 AM,19.9,12.0,71,30.10,7.0,SW,8.1,-,0.00,Snow,Light Snow,230,2013-01-03 15:53:00
11:53 AM,21.9,15.1,75,30.07,7.0,WSW,9.2,-,0.00,,Overcast,240,2013-01-03 16:53:00
12:53 PM,23.0,17.1,78,30.06,7.0,SW,8.1,-,N/A,,Overcast,230,2013-01-03 17:53:00
1:53 PM,25.0,19.9,81,30.05,5.0,West,11.5,-,N/A,,Haze,260,2013-01-03 18:53:00
2:53 PM,26.1,21.9,84,30.06,4.0,West,12.7,-,0.00,Snow,Light Snow,260,2013-01-03 19:53:00
3:53 PM,27.0,23.0,85,30.07,4.0,WSW,10.4,-,0.00,Snow,Light Snow,250,2013-01-03 20:53:00
4:53 PM,27.0,23.0,85,30.09,3.0,West,11.5,-,0.00,Snow,Light Snow,260,2013-01-03 21:53:00
5:24 PM,26.6,24.8,93,30.06,4.0,West,11.5,-,0.00,Snow,Light Snow,260,2013-01-03 22:24:00
5:53 PM,28.0,24.1,85,30.12,4.0,West,11.5,-,0.00,Snow,Light Snow,260,2013-01-03 22:53:00
6:25 PM,28.4,24.8,86,30.08,4.0,West,10.4,19.6,0.00,Snow,Light Snow,270,2013-01-03 23:25:00
6:53 PM,28.0,23.0,81,30.14,5.0,West,16.1,20.7,0.00,Snow,Light Snow,280,2013-01-03 23:53:00
7:53 PM,28.0,23.0,81,30.15,5.0,West,15.0,-,0.00,Snow,Light Snow,280,2013-01-04 00:53:00
8:00 PM,28.4,23.0,80,30.11,5.0,WNW,12.7,-,0.00,Snow,Light Snow,290,2013-01-04 01:00:00
8:53 PM,27.0,21.9,81,30.16,5.0,WNW,15.0,-,0.00,Snow,Light Snow,290,2013-01-04 01:53:00
9:53 PM,27.0,21.0,78,30.16,7.0,West,16.1,21.9,0.00,Snow,Light Snow,280,2013-01-04 02:53:00
10:53 PM,27.0,19.9,75,30.15,10.0,West,11.5,-,0.00,,Overcast,270,2013-01-04 03:53:00
11:38 PM,26.6,19.4,74,30.09,10.0,WSW,8.1,-,N/A,,Overcast,250,2013-01-04 04:38:00
11:53 PM,26.1,19.0,75,30.13,10.0,WSW,10.4,-,N/A,,Mostly Cloudy,250,2013-01-04 04:53:00